Time;durP1;ratioP1;P1;durP2;ratioP2;P2;SDS_P1;SDS_P2;PMS_P1;PMS_P2;Temp;Humidity;BMP_temperature;BMP_pressure;BME280_temperature;BME280_humidity;BME280_pressure;Samples;Min_cycle;Max_cycle;Signal;HPM_P1;HPM_P2
2022/09/04 03:29:23;;;;;;;;;;;;;;;;;;;;;
2022/09/04 04:01:14;;;;;;;;;;;;;;;;;;;;;
2022/09/04 04:14:38;;;;;;;;;;;;;;;;;;;;;
2022/09/04 04:17:44;;;;;;;;;;;;;;;;;;;;;
2022/09/04 05:29:01;;;;;;;26.60;9.05;;;18.00;99.90;;;;;;5958448;24;20389;-94
2022/09/04 05:35:37;;;;;;;;;;;;;;;;;;;;;
2022/09/04 05:59:49;;;;;;;20.90;9.38;;;16.80;99.90;;;;;;5915729;24;20353;-94
2022/09/04 06:02:42;;;;;;;21.27;9.70;;;14.80;99.90;;;;;;5844146;24;20018;-90
2022/09/04 06:05:48;;;;;;;28.80;9.23;;;14.20;99.90;;;;;;5882786;24;20351;-90
2022/09/04 06:08:51;;;;;;;16.95;9.45;;;18.20;99.90;;;;;;5988642;23;20034;-94
2022/09/04 06:11:48;;;;;;;23.05;9.82;;;15.50;99.90;;;;;;6059302;23;20028;-91
2022/09/04 06:14:17;;;;;;;27.42;9.05;;;15.50;99.90;;;;;;6063651;23;20006;-90
2022/09/04 06:17:08;;;;;;;23.73;9.63;;;15.50;99.90;;;;;;6170770;23;20009;-92
2022/09/04 06:19:36;;;;;;;19.35;9.35;;;15.60;99.90;;;;;;6181173;23;20013;-90
2022/09/04 06:22:30;;;;;;;24.90;9.00;;;15.50;99.90;;;;;;6206888;23;20025;-91
2022/09/04 06:25:21;;;;;;;26.58;9.10;;;15.70;99.90;;;;;;6156248;23;20422;-90
2022/09/04 06:27:59;;;;;;;23.95;9.98;;;16.10;99.90;;;;;;6209792;23;20001;-91
2022/09/04 06:30:44;;;;;;;20.00;9.02;;;15.60;99.90;;;;;;6215984;23;20004;-90
2022/09/04 06:33:54;;;;;;;20.35;9.70;;;16.60;99.90;;;;;;6216331;23;20007;-92
2022/09/04 06:36:32;;;;;;;28.15;9.98;;;15.80;99.90;;;;;;6233324;22;20007;-90
2022/09/04 06:39:20;;;;;;;22.27;9.73;;;15.90;99.90;;;;;;6282086;22;20459;-92
2022/09/04 06:45:03;;;;;;;24.88;9.38;;;16.10;99.90;;;;;;6286185;22;19999;-91
2022/09/04 06:48:01;;;;;;;21.00;9.20;;;16.00;99.90;;;;;;6280323;22;20003;-93
2022/09/04 06:50:48;;;;;;;29.05;9.60;;;16.10;99.90;;;;;;6277047;22;20120;-88
2022/09/04 06:53:37;;;;;;;19.83;8.90;;;16.30;99.90;;;;;;6303841;22;20336;-88
2022/09/04 06:56:26;;;;;;;26.55;9.20;;;16.20;99.90;;;;;;6304849;22;19999;-88
2022/09/04 06:59:22;;;;;;;21.75;8.93;;;16.40;99.90;;;;;;6303823;22;20055;-87
2022/09/04 07:02:27;;;;;;;26.30;8.07;;;16.40;99.90;;;;;;6304184;22;20011;-91
2022/09/04 07:05:08;;;;;;;20.90;8.48;;;16.60;99.90;;;;;;6303606;22;20006;-87
2022/09/04 07:07:37;;;;;;;23.27;8.10;;;;;;;;;;6304754;22;20052;-91
2022/09/04 07:10:50;;;;;;;25.80;9.13;;;16.80;99.90;;;;;;6310316;22;20438;-89
2022/09/04 07:13:46;;;;;;;;;;;;;;;;;;;;;
2022/09/04 07:20:52;;;;;;;31.80;8.75;;;17.10;99.90;;;;;;6268072;22;20401;-92
2022/09/04 07:27:09;;;;;;;25.60;7.80;;;17.30;99.90;;;;;;6091482;23;20061;-89
2022/09/04 07:29:46;;;;;;;26.20;8.35;;;17.70;99.90;;;;;;6155137;23;20037;-90
2022/09/04 07:32:31;;;;;;;15.27;7.93;;;17.60;99.90;;;;;;6180373;23;20453;-90
2022/09/04 07:34:57;;;;;;;20.27;7.28;;;;;;;;;;6309170;22;20443;-88
2022/09/04 07:37:45;;;;;;;21.02;7.80;;;17.90;99.90;;;;;;6334803;22;20007;-93
2022/09/04 07:40:23;;;;;;;15.85;7.10;;;18.00;99.90;;;;;;6336006;22;20545;-91
2022/09/04 07:43:06;;;;;;;25.02;8.07;;;18.10;99.90;;;;;;6338078;22;20010;-88
2022/09/04 07:45:46;;;;;;;16.98;7.70;;;18.00;99.90;;;;;;6339904;22;19999;-89
2022/09/04 07:48:40;;;;;;;24.08;7.60;;;16.90;99.90;;;;;;6275482;22;19999;-89
2022/09/04 07:51:21;;;;;;;;;;;18.50;99.90;;;;;;6246990;22;20042;-89
2022/09/04 07:53:58;;;;;;;19.17;7.40;;;18.60;99.90;;;;;;6271692;22;19910;-89
2022/09/04 07:56:43;;;;;;;21.40;8.15;;;;;;;;;;6271030;22;20411;-89
2022/09/04 07:59:50;;;;;;;25.88;7.78;;;18.50;99.90;;;;;;6247056;22;20012;-89
2022/09/04 08:02:29;;;;;;;17.15;6.95;;;18.70;99.90;;;;;;6270298;22;20092;-89
2022/09/04 08:05:13;;;;;;;23.95;8.15;;;18.80;99.90;;;;;;6272310;22;20084;-89
2022/09/04 08:07:39;;;;;;;21.00;7.63;;;;;;;;;;6271529;22;20006;-89
2022/09/04 08:10:46;;;;;;;23.98;7.10;;;19.10;99.90;;;;;;6273859;22;20043;-90
2022/09/04 08:13:12;;;;;;;28.67;6.90;;;;;;;;;;6211679;22;20016;-90
2022/09/04 08:15:50;;;;;;;24.23;7.35;;;19.40;99.90;;;;;;6300060;22;20016;-90
2022/09/04 08:18:28;;;;;;;22.85;6.80;;;20.60;99.90;;;;;;6300822;22;20080;-92
2022/09/04 08:21:28;;;;;;;24.73;6.68;;;19.80;99.90;;;;;;6359662;22;19987;-90
2022/09/04 08:24:21;;;;;;;22.70;6.32;;;20.00;99.90;;;;;;6347352;22;20082;-89
2022/09/04 08:27:17;;;;;;;29.40;7.13;;;20.00;99.90;;;;;;6338341;22;19995;-90
2022/09/04 08:30:06;;;;;;;18.27;6.28;;;20.00;99.90;;;;;;6307903;22;20007;-89
2022/09/04 08:32:41;;;;;;;15.38;6.53;;;20.00;99.90;;;;;;6306771;22;20021;-88
2022/09/04 08:35:33;;;;;;;23.02;6.10;;;20.00;99.90;;;;;;6308066;22;20051;-93
2022/09/04 08:38:17;;;;;;;25.58;6.45;;;20.00;99.90;;;;;;6334717;22;20026;-92
2022/09/04 08:41:05;;;;;;;18.17;6.05;;;20.20;99.90;;;;;;6334723;22;20006;-89
2022/09/04 08:43:31;;;;;;;;;;;20.20;99.90;;;;;;6308073;22;20006;-94
2022/09/04 08:46:14;;;;;;;21.27;5.82;;;20.20;99.90;;;;;;6334610;22;19899;-89
2022/09/04 08:49:15;;;;;;;24.02;5.97;;;20.20;99.90;;;;;;6306761;22;20003;-89
2022/09/04 08:51:44;;;;;;;35.20;10.48;;;20.20;99.90;;;;;;6334635;22;20007;-89
2022/09/04 08:54:13;;;;;;;24.92;6.20;;;20.30;99.90;;;;;;6335306;22;19999;-87
2022/09/04 08:57:13;;;;;;;18.88;5.45;;;20.30;99.90;;;;;;6337535;22;20025;-89
2022/09/04 09:00:14;;;;;;;17.67;5.72;;;20.70;99.90;;;;;;6336876;22;20003;-88
2022/09/04 09:03:05;;;;;;;17.70;5.60;;;20.40;99.90;;;;;;6330020;22;20006;-88
2022/09/04 09:06:05;;;;;;;19.60;6.30;;;20.40;99.90;;;;;;6333102;22;20015;-89
2022/09/04 09:09:08;;;;;;;25.05;6.07;;;20.40;99.90;;;;;;6334501;22;20025;-88
2022/09/04 09:12:14;;;;;;;26.70;6.00;;;21.20;99.90;;;;;;6306586;22;20011;-92
2022/09/04 09:15:10;;;;;;;17.63;5.65;;;20.70;99.90;;;;;;6277466;22;20335;-90
2022/09/04 09:17:40;;;;;;;23.05;5.82;;;20.80;99.90;;;;;;6276716;22;20542;-94
2022/09/04 09:20:44;;;;;;;23.02;5.38;;;20.80;99.90;;;;;;6303991;22;20009;-89
2022/09/04 09:23:19;;;;;;;19.88;5.72;;;20.80;99.90;;;;;;6155125;23;20009;-91
2022/09/04 09:25:54;;;;;;;17.67;5.35;;;20.80;99.90;;;;;;6178817;23;20005;-89
2022/09/04 09:28:32;;;;;;;19.33;5.05;;;20.90;99.90;;;;;;6251291;22;20007;-88
2022/09/04 09:31:33;;;;;;;16.75;5.20;;;21.00;99.90;;;;;;6301921;22;20049;-88
2022/09/04 09:34:01;;;;;;;13.50;4.60;;;21.10;99.90;;;;;;6302627;22;20074;-87
2022/09/04 09:36:34;;;;;;;18.40;5.32;;;21.10;99.90;;;;;;6274950;22;20017;-88
2022/09/04 09:39:28;;;;;;;12.48;4.68;;;21.20;99.90;;;;;;6302435;22;20504;-89
2022/09/04 09:42:41;;;;;;;18.63;4.65;;;21.20;99.90;;;;;;6303127;22;20424;-87
2022/09/04 09:45:44;;;;;;;19.02;5.07;;;21.20;99.90;;;;;;6277713;22;20052;-89
2022/09/04 09:48:37;;;;;;;13.00;4.60;;;20.50;99.90;;;;;;6248168;22;20435;-90
2022/09/04 09:51:21;;;;;;;14.85;4.80;;;22.50;99.90;;;;;;6304574;22;20007;-91
2022/09/04 09:53:50;;;;;;;24.05;5.75;;;21.20;99.90;;;;;;6277279;22;20003;-90
2022/09/04 09:56:34;;;;;;;21.52;5.18;;;21.40;99.90;;;;;;6304895;22;20003;-91
2022/09/04 09:59:18;;;;;;;22.38;4.75;;;21.40;99.90;;;;;;6277564;22;20022;-90
2022/09/04 10:01:44;;;;;;;23.33;5.30;;;;;;;;;;6277296;22;20004;-90
2022/09/04 10:04:46;;;;;;;18.48;4.70;;;21.70;99.90;;;;;;6305500;22;20120;-90
2022/09/04 10:07:17;;;;;;;16.23;4.32;;;;;;;;;;6278292;22;20004;-91
2022/09/04 10:10:17;;;;;;;15.95;4.22;;;22.10;99.90;;;;;;6307645;22;19999;-89
2022/09/04 10:12:43;;;;;;;16.08;5.03;;;22.10;99.90;;;;;;6336583;22;20435;-89
2022/09/04 10:15:47;;;;;;;15.07;4.70;;;22.10;99.90;;;;;;6336599;22;20034;-89
2022/09/04 10:18:37;;;;;;;12.85;4.43;;;22.30;99.90;;;;;;6336998;22;20017;-90
2022/09/04 10:21:29;;;;;;;17.45;4.72;;;25.90;99.90;;;;;;6334087;22;19999;-89
2022/09/04 10:23:56;;;;;;;14.00;4.35;;;;;;;;;;6336107;22;19999;-90
2022/09/04 10:26:40;;;;;;;12.93;4.20;;;22.50;99.90;;;;;;6335919;22;20007;-89
2022/09/04 10:29:27;;;;;;;14.52;4.50;;;21.30;99.90;;;;;;6335697;22;20002;-90
2022/09/04 10:32:11;;;;;;;14.38;4.38;;;22.50;99.90;;;;;;6335918;22;20004;-90
2022/09/04 10:35:06;;;;;;;16.88;5.10;;;22.60;99.90;;;;;;6307505;22;19999;-90
2022/09/04 10:38:01;;;;;;;15.75;4.22;;;22.80;99.90;;;;;;6335167;22;20094;-91
2022/09/04 10:40:51;;;;;;;16.23;3.70;;;22.90;99.90;;;;;;6335761;22;19999;-90
2022/09/04 10:43:26;;;;;;;11.20;3.95;;;23.00;99.90;;;;;;6335590;22;20006;-90
2022/09/04 10:46:19;;;;;;;18.92;4.05;;;23.00;99.90;;;;;;6335255;22;20065;-90
2022/09/04 10:49:26;;;;;;;16.33;4.15;;;22.90;99.90;;;;;;6335759;22;20006;-89
2022/09/04 10:52:29;;;;;;;16.20;3.80;;;23.10;99.90;;;;;;6308431;22;20003;-90
2022/09/04 10:55:16;;;;;;;14.52;3.80;;;23.20;99.90;;;;;;6327787;22;20054;-90
2022/09/04 10:57:42;;;;;;;14.18;3.88;;;23.20;99.90;;;;;;6365206;22;20006;-91
2022/09/04 11:00:16;;;;;;;17.13;4.10;;;23.20;99.90;;;;;;6364661;22;19990;-90
2022/09/04 11:03:12;;;;;;;13.63;3.78;;;23.40;99.90;;;;;;6364225;22;20009;-91
2022/09/04 11:05:47;;;;;;;22.08;4.45;;;23.60;99.90;;;;;;6347149;22;20006;-90
2022/09/04 11:08:34;;;;;;;19.70;5.05;;;23.50;99.90;;;;;;6337896;22;20003;-90
2022/09/04 11:11:06;;;;;;;17.35;4.80;;;23.70;99.90;;;;;;6336137;22;20011;-88
2022/09/04 11:13:55;;;;;;;21.33;4.75;;;23.60;99.90;;;;;;6309070;22;20056;-90
2022/09/04 11:16:39;;;;;;;12.95;4.00;;;23.50;99.90;;;;;;6308450;22;20045;-91
2022/09/04 11:19:19;;;;;;;14.57;4.00;;;23.60;99.90;;;;;;6335677;22;20220;-89
2022/09/04 11:22:07;;;;;;;13.02;3.83;;;23.50;99.90;;;;;;6336951;22;20081;-90
2022/09/04 11:24:53;;;;;;;14.43;4.47;;;23.40;99.90;;;;;;6335936;22;20424;-89
2022/09/04 11:27:19;;;;;;;18.38;3.35;;;;;;;;;;6335534;22;20025;-90
2022/09/04 11:30:11;;;;;;;12.43;3.50;;;23.40;99.90;;;;;;6336120;22;20003;-89
2022/09/04 11:32:39;;;;;;;12.27;3.90;;;;;;;;;;6337571;22;20003;-90
2022/09/04 11:35:46;;;;;;;12.68;3.85;;;23.50;99.90;;;;;;6335523;22;20086;-89
2022/09/04 11:38:22;;;;;;;;;;;;;;;;;;;;;
2022/09/04 11:41:27;;;;;;;;;;;;;;;;;;;;;
2022/09/04 11:44:28;;;;;;;17.35;4.00;;;23.90;99.90;;;;;;6336981;22;20089;-90
2022/09/04 11:47:24;;;;;;;13.60;3.72;;;23.80;99.90;;;;;;6309762;22;19999;-91
2022/09/04 11:50:31;;;;;;;13.45;4.07;;;21.40;99.90;;;;;;6309585;22;20003;-90
2022/09/04 11:53:23;;;;;;;9.20;3.40;;;23.90;99.90;;;;;;6337109;22;19995;-89
2022/09/04 11:56:00;;;;;;;16.58;3.67;;;23.70;99.90;;;;;;6336545;22;20697;-88
2022/09/04 11:58:44;;;;;;;11.35;4.03;;;24.00;99.90;;;;;;6336395;22;20011;-89
2022/09/04 12:01:43;;;;;;;11.68;3.72;;;24.00;99.90;;;;;;6338119;22;20026;-90
2022/09/04 12:04:41;;;;;;;10.13;3.40;;;24.20;99.90;;;;;;6336870;22;20201;-91
2022/09/04 12:07:35;;;;;;;12.40;3.25;;;25.00;99.90;;;;;;6308471;22;20003;-88
2022/09/04 12:10:01;;;;;;;12.73;3.65;;;;;;;;;;6308279;22;20456;-89
2022/09/04 12:12:32;;;;;;;13.68;3.28;;;23.90;99.90;;;;;;6334189;22;20055;-88
2022/09/04 12:15:51;;;;;;;12.50;3.53;;;23.90;99.90;;;;;;6307770;22;20002;-87
2022/09/04 12:18:35;;;;;;;12.98;3.42;;;24.10;99.90;;;;;;6268058;22;20347;-90
2022/09/04 12:21:46;;;;;;;13.98;4.18;;;24.70;99.90;;;;;;6309672;22;20378;-92
2022/09/04 12:24:04;;;;;;;10.85;3.33;;;;;;;;;;6329614;22;20010;-93
2022/09/04 12:27:15;;;;;;;;;;;;;;;;;;;;;
2022/09/04 12:33:45;;;;;;;19.83;3.97;;;24.70;99.90;;;;;;6196193;23;20807;-92
2022/09/04 12:36:41;;;;;;;11.70;3.20;;;24.70;99.90;;;;;;6241477;23;20012;-91
2022/09/04 12:39:08;;;;;;;9.18;3.58;;;;;;;;;;6242235;23;20008;-91
2022/09/04 12:45:06;;;;;;;6.78;2.80;;;24.80;99.90;;;;;;6300886;22;20082;-91
2022/09/04 12:48:32;;;;;;;;;;;;;;;;;;;;;
2022/09/04 12:51:01;;;;;;;11.73;3.63;;;;;;;;;;6241702;23;20075;-91
2022/09/04 12:53:51;;;;;;;10.82;3.60;;;25.00;99.90;;;;;;6307072;22;20010;-90
2022/09/04 13:00:10;;;;;;;12.07;3.40;;;24.90;99.90;;;;;;6336378;22;20003;-90
2022/09/04 13:02:57;;;;;;;11.02;3.53;;;;;;;;;;6309068;22;20402;-92
2022/09/04 13:05:37;;;;;;;13.80;3.50;;;25.40;99.90;;;;;;6334796;22;20381;-91
2022/09/04 13:08:18;;;;;;;10.40;3.53;;;;;;;;;;6336362;22;20018;-92
2022/09/04 13:11:12;;;;;;;7.45;3.15;;;25.10;99.90;;;;;;6334999;22;20435;-93
2022/09/04 13:14:15;;;;;;;12.95;3.88;;;24.80;99.90;;;;;;6334109;22;20408;-90
2022/09/04 13:17:01;;;;;;;8.30;3.65;;;24.70;99.90;;;;;;6215338;23;20031;-91
2022/09/04 13:20:04;;;;;;;8.40;3.35;;;24.90;99.90;;;;;;6332677;22;20027;-91
2022/09/04 13:23:05;;;;;;;14.65;4.00;;;24.80;99.90;;;;;;6338155;22;19999;-91
2022/09/04 13:26:09;;;;;;;11.80;4.00;;;25.10;99.90;;;;;;6337627;22;20121;-92
2022/09/04 13:29:00;;;;;;;11.38;3.75;;;25.30;99.90;;;;;;6336178;22;20006;-92
2022/09/04 13:32:22;;;;;;;11.68;4.38;;;25.50;99.90;;;;;;6309020;22;20030;-92
2022/09/04 13:38:39;;;;;;;7.47;3.50;;;25.70;99.90;;;;;;6298159;22;20354;-93
2022/09/04 13:47:48;;;;;;;11.45;3.80;;;;;;;;;;6240083;23;19997;-91
2022/09/04 13:50:31;;;;;;;8.90;3.83;;;25.00;99.90;;;;;;6207929;23;20186;-91
2022/09/04 13:53:15;;;;;;;11.80;3.50;;;24.80;99.90;;;;;;6227472;22;20061;-92
2022/09/04 13:56:24;;;;;;;;;;;;;;;;;;;;;
2022/09/04 13:59:29;;;;;;;10.88;3.92;;;24.90;99.90;;;;;;6274095;22;20063;-95
2022/09/04 14:02:54;;;;;;;;;;;;;;;;;;;;;
2022/09/04 14:09:05;;;;;;;10.48;4.03;;;25.20;99.90;;;;;;6204892;23;20000;-94
2022/09/04 14:11:56;;;;;;;8.13;3.45;;;25.20;99.90;;;;;;6266764;22;20015;-91
2022/09/04 14:15:19;;;;;;;;;;;;;;;;;;;;;
2022/09/04 14:18:19;;;;;;;12.98;3.70;;;25.40;99.90;;;;;;6305816;22;20290;-91
2022/09/04 14:21:09;;;;;;;9.88;3.90;;;;;;;;;;6278899;22;20212;-93
2022/09/04 14:23:52;;;;;;;8.68;3.38;;;25.50;99.90;;;;;;6278498;22;20007;-92
2022/09/04 14:26:31;;;;;;;8.30;4.03;;;25.50;99.90;;;;;;6305384;22;20000;-90
2022/09/04 14:29:40;;;;;;;12.50;4.10;;;25.90;99.90;;;;;;6277629;22;20011;-91
2022/09/04 14:32:43;;;;;;;11.85;3.80;;;25.50;99.90;;;;;;6287721;22;20497;-91
2022/09/04 14:35:52;;;;;;;11.05;3.40;;;25.50;99.90;;;;;;6304160;22;20000;-91
2022/09/04 14:38:25;;;;;;;10.18;3.35;;;25.50;99.90;;;;;;6254720;22;20015;-89
2022/09/04 14:41:02;;;;;;;9.93;3.42;;;25.50;99.90;;;;;;6277327;22;20021;-89
2022/09/04 14:44:05;;;;;;;6.93;3.55;;;25.60;99.90;;;;;;6305865;22;20004;-89
2022/09/04 14:47:02;;;;;;;7.78;3.30;;;25.70;99.90;;;;;;6258313;22;20057;-90
2022/09/04 14:49:30;;;;;;;19.05;3.85;;;25.70;99.90;;;;;;6268399;22;20039;-90
2022/09/04 14:52:10;;;;;;;8.27;3.33;;;25.70;99.90;;;;;;6305494;22;19999;-91
2022/09/04 14:54:42;;;;;;;7.55;3.25;;;25.60;99.90;;;;;;6277415;22;19999;-91
2022/09/04 14:57:45;;;;;;;12.30;3.55;;;25.50;99.90;;;;;;6305561;22;19999;-90
2022/09/04 15:00:16;;;;;;;11.15;3.50;;;25.50;99.90;;;;;;6304564;22;20443;-91
2022/09/04 15:02:42;;;;;;;10.77;3.50;;;;;;;;;;6305158;22;20082;-91
2022/09/04 15:05:25;;;;;;;9.32;3.38;;;25.40;99.90;;;;;;6305031;22;20000;-91
2022/09/04 15:07:58;;;;;;;11.95;3.78;;;25.50;99.90;;;;;;6305221;22;20025;-91
2022/09/04 15:11:17;;;;;;;;;;;;;;;;;;;;;
2022/09/04 15:14:33;;;;;;;;;;;;;;;;;;;;;
2022/09/04 15:17:11;;;;;;;28.45;3.75;;;25.50;99.90;;;;;;6303722;22;20086;-89
2022/09/04 15:19:54;;;;;;;11.88;3.88;;;25.30;99.90;;;;;;6303898;22;20023;-88
2022/09/04 15:22:36;;;;;;;10.93;3.95;;;25.40;99.90;;;;;;6303842;22;20007;-91
2022/09/04 15:25:08;;;;;;;11.93;3.75;;;25.40;99.90;;;;;;6303613;22;20000;-88
2022/09/04 15:27:59;;;;;;;5.85;3.13;;;25.60;99.90;;;;;;6303868;22;20003;-90
2022/09/04 15:30:30;;;;;;;6.22;3.65;;;25.70;99.90;;;;;;6304613;22;19999;-89
2022/09/04 15:33:09;;;;;;;9.95;3.40;;;25.70;99.90;;;;;;6304196;22;20000;-89
2022/09/04 15:35:37;;;;;;;9.48;3.40;;;25.90;99.90;;;;;;6301465;22;20011;-88
2022/09/04 15:38:06;;;;;;;7.90;3.47;;;;;;;;;;6303681;22;20012;-90
2022/09/04 15:40:49;;;;;;;7.88;3.28;;;26.00;99.90;;;;;;6302620;22;20104;-90
2022/09/04 15:43:15;;;;;;;11.18;3.92;;;;;;;;;;6302475;22;20023;-88
2022/09/04 15:45:41;;;;;;;8.20;3.83;;;;;;;;;;6302786;22;20027;-90
2022/09/04 15:48:24;;;;;;;8.77;3.72;;;25.80;99.90;;;;;;6303385;22;20068;-89
2022/09/04 15:51:10;;;;;;;7.10;3.80;;;25.80;99.90;;;;;;6300366;22;20011;-88
2022/09/04 15:53:40;;;;;;;12.18;3.95;;;25.80;99.90;;;;;;6302147;22;20057;-91
2022/09/04 15:56:22;;;;;;;11.23;3.80;;;25.80;99.90;;;;;;6303745;22;19999;-92
2022/09/04 15:58:49;;;;;;;15.65;4.70;;;;;;;;;;6303683;22;20015;-94
2022/09/04 16:01:25;;;;;;;10.20;3.80;;;25.70;99.90;;;;;;6306036;22;20070;-91
2022/09/04 16:04:20;;;;;;;11.30;3.50;;;25.70;99.90;;;;;;6303615;22;20006;-93
2022/09/04 16:07:00;;;;;;;8.93;3.38;;;25.90;99.90;;;;;;6301931;22;20003;-91
2022/09/04 16:09:32;;;;;;;9.63;3.92;;;27.60;99.90;;;;;;6303226;22;20010;-91
2022/09/04 16:12:35;;;;;;;10.65;4.03;;;25.70;99.90;;;;;;6304450;22;20035;-92
2022/09/04 16:15:15;;;;;;;11.95;3.83;;;24.00;99.90;;;;;;6278689;22;20003;-92
2022/09/04 16:17:45;;;;;;;14.48;3.95;;;25.50;99.90;;;;;;6297650;22;20477;-92
2022/09/04 16:20:28;;;;;;;7.30;3.38;;;25.50;99.90;;;;;;6300263;22;20010;-91
2022/09/04 16:22:59;;;;;;;8.00;3.90;;;25.80;99.90;;;;;;6303216;22;20053;-92
2022/09/04 16:25:28;;;;;;;10.77;3.60;;;25.90;99.90;;;;;;6323370;22;19987;-90
2022/09/04 16:28:18;;;;;;;15.60;3.60;;;25.60;99.90;;;;;;6328651;22;20010;-89
2022/09/04 16:30:53;;;;;;;7.47;3.60;;;27.10;99.90;;;;;;6329832;22;19987;-90
2022/09/04 16:33:34;;;;;;;9.13;3.90;;;26.70;99.90;;;;;;6327109;22;20054;-90
2022/09/04 16:36:14;;;;;;;12.40;4.05;;;26.10;99.90;;;;;;6311368;22;20010;-89
2022/09/04 16:39:02;;;;;;;7.15;3.70;;;26.00;99.90;;;;;;6301150;22;20022;-93
2022/09/04 16:41:39;;;;;;;8.10;3.58;;;26.00;99.90;;;;;;6303884;22;20066;-89
2022/09/04 16:44:12;;;;;;;10.63;3.25;;;26.40;99.90;;;;;;6304458;22;20063;-90
2022/09/04 16:46:50;;;;;;;8.10;3.60;;;27.30;99.90;;;;;;6303363;22;19999;-88
2022/09/04 16:49:30;;;;;;;9.82;3.80;;;27.30;99.90;;;;;;6303230;22;19999;-94
2022/09/04 16:52:20;;;;;;;12.90;3.92;;;27.80;99.90;;;;;;6303767;22;20000;-91
2022/09/04 16:55:23;;;;;;;7.93;3.40;;;27.60;99.90;;;;;;6302112;22;20474;-89
2022/09/04 16:58:06;;;;;;;8.55;3.30;;;27.40;99.90;;;;;;6303317;22;20007;-89
2022/09/04 17:01:01;;;;;;;5.95;3.20;;;27.00;99.90;;;;;;6301277;22;20031;-90
2022/09/04 17:03:48;;;;;;;14.55;3.90;;;26.80;99.90;;;;;;6301763;22;20439;-90
2022/09/04 17:06:43;;;;;;;8.45;3.50;;;26.40;99.90;;;;;;6302992;22;20057;-90
2022/09/04 17:09:39;;;;;;;7.32;3.47;;;26.20;99.90;;;;;;6296405;22;20531;-91
2022/09/04 17:12:31;;;;;;;6.68;3.55;;;26.20;99.90;;;;;;6285440;22;20015;-94
2022/09/04 17:15:06;;;;;;;7.97;3.40;;;26.00;99.90;;;;;;6258924;22;20004;-88
2022/09/04 17:17:36;;;;;;;12.95;3.83;;;;;;;;;;6303826;22;20007;-89
2022/09/04 17:20:08;;;;;;;8.95;3.60;;;25.80;99.90;;;;;;6306951;22;19995;-90
2022/09/04 17:23:05;;;;;;;7.75;3.47;;;26.00;99.90;;;;;;6304960;22;20015;-89
2022/09/04 17:25:34;;;;;;;6.22;3.30;;;25.60;99.90;;;;;;6307979;22;20011;-90
2022/09/04 17:28:00;;;;;;;13.30;3.75;;;;;;;;;;6303462;22;20039;-90
2022/09/04 17:30:36;;;;;;;7.45;3.30;;;25.20;99.90;;;;;;6303581;22;20010;-90
2022/09/04 17:33:44;;;;;;;7.75;3.70;;;25.20;99.90;;;;;;6304271;22;19999;-90
2022/09/04 17:36:21;;;;;;;7.43;3.72;;;25.10;99.90;;;;;;6303417;22;20049;-90
2022/09/04 17:39:06;;;;;;;9.05;3.60;;;25.30;99.90;;;;;;6303250;22;20007;-91
2022/09/04 17:41:44;;;;;;;8.32;3.60;;;25.60;99.90;;;;;;6301192;22;20317;-90
2022/09/04 17:44:24;;;;;;;11.10;3.50;;;26.10;99.90;;;;;;6302008;22;20008;-90
2022/09/04 17:47:08;;;;;;;8.00;3.70;;;26.90;99.90;;;;;;6301688;22;20081;-89
2022/09/04 17:49:43;;;;;;;7.68;3.47;;;25.30;99.90;;;;;;6302415;22;20022;-88
2022/09/04 17:52:10;;;;;;;8.43;3.40;;;;;;;;;;6310784;22;20053;-88
2022/09/04 17:54:43;;;;;;;9.05;3.55;;;24.50;99.90;;;;;;6308687;22;20010;-88
2022/09/04 17:57:34;;;;;;;6.30;3.40;;;24.80;99.90;;;;;;6304448;22;20078;-93
2022/09/04 18:00:07;;;;;;;7.40;3.63;;;24.60;99.90;;;;;;6302222;22;20011;-89
2022/09/04 18:02:44;;;;;;;9.27;3.40;;;24.60;99.90;;;;;;6303136;22;20049;-90
2022/09/04 18:05:28;;;;;;;8.07;3.50;;;24.50;99.90;;;;;;6303125;22;19999;-88
2022/09/04 18:08:00;;;;;;;9.70;4.07;;;24.40;99.90;;;;;;6303716;22;20014;-88
2022/09/04 18:10:45;;;;;;;14.75;3.60;;;24.20;99.90;;;;;;6314998;22;20064;-89
2022/09/04 18:13:32;;;;;;;14.68;3.70;;;24.10;99.90;;;;;;6306784;22;20439;-89
2022/09/04 18:16:31;;;;;;;9.13;4.00;;;23.80;99.90;;;;;;6309215;22;20316;-89
2022/09/04 18:19:19;;;;;;;12.10;4.53;;;23.70;99.90;;;;;;6320245;22;20447;-89
2022/09/04 18:21:54;;;;;;;10.68;5.30;;;23.60;99.90;;;;;;6333146;22;20006;-92
2022/09/04 18:24:32;;;;;;;15.07;8.48;;;23.40;99.90;;;;;;6334344;22;19991;-89
2022/09/04 18:26:58;;;;;;;13.48;5.40;;;;;;;;;;6308620;22;20060;-93
2022/09/04 18:29:59;;;;;;;8.07;4.57;;;23.40;99.90;;;;;;6335718;22;20003;-89
2022/09/04 18:32:25;;;;;;;9.77;4.20;;;;;;;;;;6321196;22;20060;-92
2022/09/04 18:34:58;;;;;;;11.77;3.90;;;23.20;99.90;;;;;;6337622;22;20386;-89
2022/09/04 18:37:31;;;;;;;12.90;4.50;;;23.20;99.90;;;;;;6335915;22;20015;-87
2022/09/04 18:39:57;;;;;;;9.43;3.67;;;;;;;;;;6307665;22;20477;-89
2022/09/04 18:42:30;;;;;;;10.40;4.20;;;19.70;99.90;;;;;;6335350;22;20003;-88
2022/09/04 18:45:14;;;;;;;11.95;4.00;;;23.00;99.90;;;;;;6307498;22;19999;-88
2022/09/04 18:47:52;;;;;;;10.55;4.05;;;22.80;99.90;;;;;;6335491;22;20006;-88
2022/09/04 18:50:38;;;;;;;8.25;4.32;;;22.80;99.90;;;;;;6308691;22;19998;-91
2022/09/04 18:53:28;;;;;;;13.30;4.28;;;22.60;99.90;;;;;;6308924;22;20010;-90
2022/09/04 18:56:06;;;;;;;13.55;4.63;;;24.70;99.90;;;;;;6307114;22;20359;-89
2022/09/04 18:58:53;;;;;;;6.90;4.15;;;22.60;99.90;;;;;;6336934;22;20465;-90
2022/09/04 19:01:21;;;;;;;11.43;4.78;;;22.50;99.90;;;;;;6336252;22;19995;-90
2022/09/04 19:04:09;;;;;;;16.30;4.72;;;22.40;99.90;;;;;;6336785;22;19998;-95
2022/09/04 19:06:51;;;;;;;12.35;5.13;;;22.30;99.90;;;;;;6337302;22;19995;-90
2022/09/04 19:09:22;;;;;;;15.00;5.18;;;22.30;99.90;;;;;;6345449;22;19983;-89
2022/09/04 19:11:56;;;;;;;12.07;5.15;;;22.20;99.90;;;;;;6364252;22;20054;-90
2022/09/04 19:14:33;;;;;;;13.30;5.57;;;22.20;99.90;;;;;;6364305;22;20014;-90
2022/09/04 19:17:21;;;;;;;10.57;4.80;;;22.10;99.90;;;;;;6335299;22;20028;-89
2022/09/04 19:19:48;;;;;;;13.95;5.57;;;;;;;;;;6326528;22;20035;-96
2022/09/04 19:22:40;;;;;;;11.88;5.40;;;22.10;99.90;;;;;;6335269;22;19999;-89
2022/09/04 19:25:12;;;;;;;11.30;4.75;;;22.00;99.90;;;;;;6336553;22;20087;-90
2022/09/04 19:27:56;;;;;;;9.52;4.95;;;21.90;99.90;;;;;;6308827;22;20010;-89
2022/09/04 19:30:32;;;;;;;11.80;4.78;;;21.80;99.90;;;;;;6336380;22;19999;-90
2022/09/04 19:33:21;;;;;;;9.95;5.20;;;21.80;99.90;;;;;;6335569;22;20002;-89
2022/09/04 19:36:02;;;;;;;11.02;5.10;;;21.70;99.90;;;;;;6308831;22;20427;-94
2022/09/04 19:38:37;;;;;;;15.52;5.50;;;21.70;99.90;;;;;;6335897;22;20089;-93
2022/09/04 19:41:22;;;;;;;10.43;5.22;;;21.60;99.90;;;;;;6310043;22;19999;-90
2022/09/04 19:44:11;;;;;;;9.95;4.95;;;21.60;99.90;;;;;;6308009;22;20389;-89
2022/09/04 19:47:12;;;;;;;11.90;5.30;;;21.50;99.90;;;;;;6335986;22;20003;-90
2022/09/04 19:49:47;;;;;;;13.13;5.07;;;21.50;99.90;;;;;;6336810;22;19995;-90
2022/09/04 19:52:21;;;;;;;10.88;5.25;;;21.40;99.90;;;;;;6335723;22;19998;-89
2022/09/04 19:55:03;;;;;;;20.05;5.28;;;21.30;99.90;;;;;;6308952;22;20003;-94
2022/09/04 19:57:39;;;;;;;9.68;5.32;;;21.10;99.90;;;;;;6335908;22;20003;-94
2022/09/04 20:00:10;;;;;;;17.13;5.70;;;21.10;99.90;;;;;;6307651;22;20393;-89
2022/09/04 20:02:41;;;;;;;10.35;5.18;;;21.00;99.90;;;;;;6337437;22;19999;-94
2022/09/04 20:05:25;;;;;;;13.13;5.30;;;20.90;99.90;;;;;;6336014;22;19998;-89
2022/09/04 20:08:05;;;;;;;12.07;5.05;;;21.00;99.90;;;;;;6309269;22;20010;-93
2022/09/04 20:10:40;;;;;;;13.38;5.18;;;20.90;99.90;;;;;;6307468;22;20086;-89
2022/09/04 20:13:30;;;;;;;13.18;5.55;;;20.90;99.90;;;;;;6336214;22;20092;-90
2022/09/04 20:16:16;;;;;;;11.02;5.00;;;20.90;99.90;;;;;;6335056;22;20005;-90
2022/09/04 20:18:54;;;;;;;13.45;5.13;;;21.40;99.90;;;;;;6334953;22;20457;-89
2022/09/04 20:21:42;;;;;;;12.80;5.00;;;20.90;99.90;;;;;;6335416;22;20036;-89
2022/09/04 20:24:15;;;;;;;;;;;20.90;99.90;;;;;;6335985;22;20095;-89
2022/09/04 20:26:49;;;;;;;14.88;6.10;;;20.80;99.90;;;;;;6335109;22;20327;-89
2022/09/04 20:29:32;;;;;;;15.35;5.15;;;20.80;99.90;;;;;;6334877;22;20002;-89
2022/09/04 20:32:16;;;;;;;12.65;5.53;;;23.60;99.90;;;;;;6307661;22;20003;-90
2022/09/04 20:34:49;;;;;;;11.43;5.45;;;20.70;99.90;;;;;;6307329;22;20007;-89
2022/09/04 20:37:27;;;;;;;9.13;5.20;;;20.80;99.90;;;;;;6306965;22;20010;-90
2022/09/04 20:40:01;;;;;;;;;;;20.60;99.90;;;;;;6335654;22;20002;-94
2022/09/04 20:42:34;;;;;;;13.68;5.60;;;20.50;99.90;;;;;;6336146;22;20312;-89
2022/09/04 20:45:03;;;;;;;11.40;5.63;;;20.50;99.90;;;;;;6307466;22;20063;-94
2022/09/04 20:47:38;;;;;;;12.50;5.57;;;20.40;99.90;;;;;;6335565;22;19999;-88
2022/09/04 20:50:04;;;;;;;13.55;5.70;;;;;;;;;;6335404;22;20005;-89
2022/09/04 20:52:37;;;;;;;16.58;7.03;;;20.40;99.90;;;;;;6335189;22;20011;-90
2022/09/04 20:55:24;;;;;;;16.15;5.78;;;20.40;99.90;;;;;;6334372;22;19998;-88
2022/09/04 20:58:17;;;;;;;11.25;5.47;;;20.50;99.90;;;;;;6306357;22;20015;-88